sensor_id;sensor_type;location;lat;lon;timestamp;P1;durP1;ratioP1;P2;durP2;ratioP2
15712;SDS011;7957;51.608;6.916;2022-08-25T00:01:47;6.00;;;3.50;;
15712;SDS011;7957;51.608;6.916;2022-08-25T00:04:15;4.27;;;3.30;;
15712;SDS011;7957;51.608;6.916;2022-08-25T00:06:44;3.57;;;3.23;;
15712;SDS011;7957;51.608;6.916;2022-08-25T00:09:12;5.47;;;2.90;;
15712;SDS011;7957;51.608;6.916;2022-08-25T00:11:41;4.37;;;3.17;;
15712;SDS011;7957;51.608;6.916;2022-08-25T00:14:11;3.57;;;3.10;;
15712;SDS011;7957;51.608;6.916;2022-08-25T00:16:39;3.87;;;2.90;;
15712;SDS011;7957;51.608;6.916;2022-08-25T00:19:08;3.93;;;3.07;;
15712;SDS011;7957;51.608;6.916;2022-08-25T00:21:38;3.73;;;3.40;;
15712;SDS011;7957;51.608;6.916;2022-08-25T00:24:05;3.73;;;2.87;;
15712;SDS011;7957;51.608;6.916;2022-08-25T00:26:33;4.40;;;3.40;;
15712;SDS011;7957;51.608;6.916;2022-08-25T00:29:02;4.67;;;3.30;;
15712;SDS011;7957;51.608;6.916;2022-08-25T00:31:31;4.13;;;3.03;;
15712;SDS011;7957;51.608;6.916;2022-08-25T00:33:59;4.57;;;3.47;;
15712;SDS011;7957;51.608;6.916;2022-08-25T00:36:26;3.80;;;3.00;;
15712;SDS011;7957;51.608;6.916;2022-08-25T00:38:54;4.30;;;3.47;;
15712;SDS011;7957;51.608;6.916;2022-08-25T00:41:21;4.60;;;3.50;;
15712;SDS011;7957;51.608;6.916;2022-08-25T00:43:52;3.83;;;3.30;;
15712;SDS011;7957;51.608;6.916;2022-08-25T00:46:23;3.70;;;3.20;;
15712;SDS011;7957;51.608;6.916;2022-08-25T00:48:54;4.13;;;3.50;;
15712;SDS011;7957;51.608;6.916;2022-08-25T00:51:27;4.47;;;3.23;;
15712;SDS011;7957;51.608;6.916;2022-08-25T00:53:59;3.53;;;3.13;;
15712;SDS011;7957;51.608;6.916;2022-08-25T00:56:27;3.73;;;3.10;;
15712;SDS011;7957;51.608;6.916;2022-08-25T00:58:55;3.67;;;3.00;;
15712;SDS011;7957;51.608;6.916;2022-08-25T01:01:23;3.50;;;3.20;;
15712;SDS011;7957;51.608;6.916;2022-08-25T01:03:51;4.83;;;3.27;;
15712;SDS011;7957;51.608;6.916;2022-08-25T01:06:19;4.23;;;3.37;;
15712;SDS011;7957;51.608;6.916;2022-08-25T01:08:47;3.60;;;3.10;;
15712;SDS011;7957;51.608;6.916;2022-08-25T01:11:15;4.17;;;3.00;;
15712;SDS011;7957;51.608;6.916;2022-08-25T01:13:44;4.67;;;3.50;;
15712;SDS011;7957;51.608;6.916;2022-08-25T01:16:15;3.30;;;3.00;;
15712;SDS011;7957;51.608;6.916;2022-08-25T01:18:46;4.53;;;3.50;;
15712;SDS011;7957;51.608;6.916;2022-08-25T01:21:17;3.90;;;3.30;;
15712;SDS011;7957;51.608;6.916;2022-08-25T01:23:47;3.40;;;3.10;;
15712;SDS011;7957;51.608;6.916;2022-08-25T01:26:16;4.93;;;3.30;;
15712;SDS011;7957;51.608;6.916;2022-08-25T01:28:44;3.17;;;2.87;;
15712;SDS011;7957;51.608;6.916;2022-08-25T01:31:31;3.37;;;3.03;;
15712;SDS011;7957;51.608;6.916;2022-08-25T01:33:58;3.60;;;3.30;;
15712;SDS011;7957;51.608;6.916;2022-08-25T01:36:27;6.40;;;3.47;;
15712;SDS011;7957;51.608;6.916;2022-08-25T01:38:55;5.50;;;3.30;;
15712;SDS011;7957;51.608;6.916;2022-08-25T01:41:25;3.67;;;3.23;;
15712;SDS011;7957;51.608;6.916;2022-08-25T01:44:01;3.33;;;3.00;;
15712;SDS011;7957;51.608;6.916;2022-08-25T01:46:29;3.70;;;3.17;;
15712;SDS011;7957;51.608;6.916;2022-08-25T01:48:56;4.53;;;3.20;;
15712;SDS011;7957;51.608;6.916;2022-08-25T01:51:24;3.50;;;3.20;;
15712;SDS011;7957;51.608;6.916;2022-08-25T01:53:54;3.57;;;3.00;;
15712;SDS011;7957;51.608;6.916;2022-08-25T01:56:21;3.43;;;3.10;;
15712;SDS011;7957;51.608;6.916;2022-08-25T01:58:48;3.40;;;3.10;;
15712;SDS011;7957;51.608;6.916;2022-08-25T02:01:15;4.40;;;3.20;;
15712;SDS011;7957;51.608;6.916;2022-08-25T02:03:46;3.80;;;3.40;;
15712;SDS011;7957;51.608;6.916;2022-08-25T02:06:16;3.57;;;3.27;;
15712;SDS011;7957;51.608;6.916;2022-08-25T02:08:48;5.00;;;3.70;;
15712;SDS011;7957;51.608;6.916;2022-08-25T02:11:17;4.10;;;3.30;;
15712;SDS011;7957;51.608;6.916;2022-08-25T02:13:45;4.47;;;3.13;;
15712;SDS011;7957;51.608;6.916;2022-08-25T02:16:14;3.50;;;3.17;;
15712;SDS011;7957;51.608;6.916;2022-08-25T02:18:44;4.57;;;3.37;;
15712;SDS011;7957;51.608;6.916;2022-08-25T02:21:11;4.27;;;3.00;;
15712;SDS011;7957;51.608;6.916;2022-08-25T02:23:38;3.23;;;3.00;;
15712;SDS011;7957;51.608;6.916;2022-08-25T02:26:06;4.37;;;3.30;;
15712;SDS011;7957;51.608;6.916;2022-08-25T02:28:35;4.37;;;3.10;;
15712;SDS011;7957;51.608;6.916;2022-08-25T02:31:02;4.17;;;3.07;;
15712;SDS011;7957;51.608;6.916;2022-08-25T02:33:30;5.77;;;3.50;;
15712;SDS011;7957;51.608;6.916;2022-08-25T02:35:58;3.50;;;3.20;;
15712;SDS011;7957;51.608;6.916;2022-08-25T02:38:25;4.77;;;3.37;;
15712;SDS011;7957;51.608;6.916;2022-08-25T02:40:52;5.23;;;3.50;;
15712;SDS011;7957;51.608;6.916;2022-08-25T02:43:19;4.17;;;3.27;;
15712;SDS011;7957;51.608;6.916;2022-08-25T02:45:48;4.63;;;3.30;;
15712;SDS011;7957;51.608;6.916;2022-08-25T02:48:15;4.93;;;3.20;;
15712;SDS011;7957;51.608;6.916;2022-08-25T02:50:44;4.77;;;3.20;;
15712;SDS011;7957;51.608;6.916;2022-08-25T02:53:12;5.93;;;3.93;;
15712;SDS011;7957;51.608;6.916;2022-08-25T02:55:39;4.00;;;3.50;;
15712;SDS011;7957;51.608;6.916;2022-08-25T02:58:06;3.53;;;3.23;;
15712;SDS011;7957;51.608;6.916;2022-08-25T03:00:34;4.77;;;3.03;;
15712;SDS011;7957;51.608;6.916;2022-08-25T03:03:02;3.93;;;3.50;;
15712;SDS011;7957;51.608;6.916;2022-08-25T03:05:29;5.10;;;3.80;;
15712;SDS011;7957;51.608;6.916;2022-08-25T03:07:57;4.50;;;3.73;;
15712;SDS011;7957;51.608;6.916;2022-08-25T03:10:24;4.20;;;3.53;;
15712;SDS011;7957;51.608;6.916;2022-08-25T03:12:51;4.47;;;3.50;;
15712;SDS011;7957;51.608;6.916;2022-08-25T03:15:18;4.43;;;3.73;;
15712;SDS011;7957;51.608;6.916;2022-08-25T03:17:45;3.50;;;3.20;;
15712;SDS011;7957;51.608;6.916;2022-08-25T03:20:14;4.20;;;3.37;;
15712;SDS011;7957;51.608;6.916;2022-08-25T03:22:42;4.10;;;3.50;;
15712;SDS011;7957;51.608;6.916;2022-08-25T03:25:09;4.40;;;3.50;;
15712;SDS011;7957;51.608;6.916;2022-08-25T03:27:53;6.40;;;3.53;;
15712;SDS011;7957;51.608;6.916;2022-08-25T03:30:20;6.77;;;3.37;;
15712;SDS011;7957;51.608;6.916;2022-08-25T03:32:47;4.97;;;4.13;;
15712;SDS011;7957;51.608;6.916;2022-08-25T03:35:16;3.70;;;3.40;;
15712;SDS011;7957;51.608;6.916;2022-08-25T03:37:43;4.50;;;3.90;;
15712;SDS011;7957;51.608;6.916;2022-08-25T03:40:12;5.03;;;3.63;;
15712;SDS011;7957;51.608;6.916;2022-08-25T03:42:41;5.83;;;3.27;;
15712;SDS011;7957;51.608;6.916;2022-08-25T03:45:09;3.43;;;3.13;;
15712;SDS011;7957;51.608;6.916;2022-08-25T03:47:37;4.63;;;3.57;;
15712;SDS011;7957;51.608;6.916;2022-08-25T03:50:07;4.33;;;3.30;;
15712;SDS011;7957;51.608;6.916;2022-08-25T03:52:37;3.40;;;3.10;;
15712;SDS011;7957;51.608;6.916;2022-08-25T03:55:05;4.77;;;3.60;;
15712;SDS011;7957;51.608;6.916;2022-08-25T03:57:34;3.70;;;3.30;;
15712;SDS011;7957;51.608;6.916;2022-08-25T04:00:02;3.70;;;3.40;;
15712;SDS011;7957;51.608;6.916;2022-08-25T04:02:31;4.70;;;3.20;;
15712;SDS011;7957;51.608;6.916;2022-08-25T04:04:58;3.50;;;3.20;;
15712;SDS011;7957;51.608;6.916;2022-08-25T04:07:24;3.90;;;3.50;;
15712;SDS011;7957;51.608;6.916;2022-08-25T04:09:53;3.53;;;3.23;;
15712;SDS011;7957;51.608;6.916;2022-08-25T04:12:20;4.03;;;3.63;;
15712;SDS011;7957;51.608;6.916;2022-08-25T04:14:47;3.80;;;3.50;;
15712;SDS011;7957;51.608;6.916;2022-08-25T04:17:14;3.93;;;3.30;;
15712;SDS011;7957;51.608;6.916;2022-08-25T04:19:41;3.80;;;3.50;;
15712;SDS011;7957;51.608;6.916;2022-08-25T04:22:08;4.77;;;3.53;;
15712;SDS011;7957;51.608;6.916;2022-08-25T04:24:36;5.27;;;3.30;;
15712;SDS011;7957;51.608;6.916;2022-08-25T04:27:04;4.90;;;3.57;;
15712;SDS011;7957;51.608;6.916;2022-08-25T04:29:31;4.70;;;3.80;;
15712;SDS011;7957;51.608;6.916;2022-08-25T04:31:58;4.10;;;3.70;;
15712;SDS011;7957;51.608;6.916;2022-08-25T04:34:26;3.70;;;3.40;;
15712;SDS011;7957;51.608;6.916;2022-08-25T04:36:53;5.47;;;3.70;;
15712;SDS011;7957;51.608;6.916;2022-08-25T04:39:20;6.23;;;3.80;;
15712;SDS011;7957;51.608;6.916;2022-08-25T04:41:47;7.37;;;3.90;;
15712;SDS011;7957;51.608;6.916;2022-08-25T04:44:15;4.73;;;3.83;;
15712;SDS011;7957;51.608;6.916;2022-08-25T04:46:42;4.20;;;3.73;;
15712;SDS011;7957;51.608;6.916;2022-08-25T04:49:09;3.83;;;3.43;;
15712;SDS011;7957;51.608;6.916;2022-08-25T04:51:37;5.27;;;3.40;;
15712;SDS011;7957;51.608;6.916;2022-08-25T04:54:07;4.03;;;3.50;;
15712;SDS011;7957;51.608;6.916;2022-08-25T04:56:37;6.40;;;3.77;;
15712;SDS011;7957;51.608;6.916;2022-08-25T04:59:06;4.10;;;3.30;;
15712;SDS011;7957;51.608;6.916;2022-08-25T05:01:36;5.10;;;3.97;;
15712;SDS011;7957;51.608;6.916;2022-08-25T05:04:05;5.17;;;3.57;;
15712;SDS011;7957;51.608;6.916;2022-08-25T05:06:33;4.37;;;3.50;;
15712;SDS011;7957;51.608;6.916;2022-08-25T05:09:02;4.20;;;3.70;;
15712;SDS011;7957;51.608;6.916;2022-08-25T05:11:29;3.70;;;3.30;;
15712;SDS011;7957;51.608;6.916;2022-08-25T05:13:56;5.37;;;3.90;;
15712;SDS011;7957;51.608;6.916;2022-08-25T05:16:24;5.80;;;3.63;;
15712;SDS011;7957;51.608;6.916;2022-08-25T05:18:53;6.40;;;3.97;;
15712;SDS011;7957;51.608;6.916;2022-08-25T05:21:21;3.97;;;3.50;;
15712;SDS011;7957;51.608;6.916;2022-08-25T05:23:53;4.40;;;3.97;;
15712;SDS011;7957;51.608;6.916;2022-08-25T05:26:22;3.63;;;3.33;;
15712;SDS011;7957;51.608;6.916;2022-08-25T05:28:51;4.97;;;3.47;;
15712;SDS011;7957;51.608;6.916;2022-08-25T05:31:19;3.70;;;3.30;;
15712;SDS011;7957;51.608;6.916;2022-08-25T05:33:47;5.00;;;3.30;;
15712;SDS011;7957;51.608;6.916;2022-08-25T05:36:16;4.43;;;3.43;;
15712;SDS011;7957;51.608;6.916;2022-08-25T05:38:44;3.97;;;3.37;;
15712;SDS011;7957;51.608;6.916;2022-08-25T05:41:12;5.23;;;3.47;;
15712;SDS011;7957;51.608;6.916;2022-08-25T05:43:41;4.07;;;3.60;;
15712;SDS011;7957;51.608;6.916;2022-08-25T05:46:10;4.33;;;3.67;;
15712;SDS011;7957;51.608;6.916;2022-08-25T05:48:38;14.18;;;4.95;;
15712;SDS011;7957;51.608;6.916;2022-08-25T05:51:05;14.90;;;5.50;;
15712;SDS011;7957;51.608;6.916;2022-08-25T05:53:36;11.47;;;4.77;;
15712;SDS011;7957;51.608;6.916;2022-08-25T05:56:05;11.40;;;4.77;;
15712;SDS011;7957;51.608;6.916;2022-08-25T05:58:32;12.07;;;4.80;;
15712;SDS011;7957;51.608;6.916;2022-08-25T06:00:59;8.63;;;5.00;;
15712;SDS011;7957;51.608;6.916;2022-08-25T06:03:47;10.27;;;4.60;;
15712;SDS011;7957;51.608;6.916;2022-08-25T06:06:13;12.60;;;5.17;;
15712;SDS011;7957;51.608;6.916;2022-08-25T06:08:42;7.73;;;5.00;;
15712;SDS011;7957;51.608;6.916;2022-08-25T06:11:09;6.67;;;4.43;;
15712;SDS011;7957;51.608;6.916;2022-08-25T06:13:37;13.17;;;4.80;;
15712;SDS011;7957;51.608;6.916;2022-08-25T06:16:04;10.17;;;4.47;;
15712;SDS011;7957;51.608;6.916;2022-08-25T06:18:31;14.23;;;4.73;;
15712;SDS011;7957;51.608;6.916;2022-08-25T06:21:00;10.17;;;5.00;;
15712;SDS011;7957;51.608;6.916;2022-08-25T06:23:32;8.47;;;4.23;;
15712;SDS011;7957;51.608;6.916;2022-08-25T06:26:01;9.00;;;4.50;;
15712;SDS011;7957;51.608;6.916;2022-08-25T06:28:28;8.20;;;4.87;;
15712;SDS011;7957;51.608;6.916;2022-08-25T06:30:56;10.50;;;5.20;;
15712;SDS011;7957;51.608;6.916;2022-08-25T06:33:23;11.30;;;5.13;;
15712;SDS011;7957;51.608;6.916;2022-08-25T06:35:52;9.20;;;4.97;;
15712;SDS011;7957;51.608;6.916;2022-08-25T06:38:19;9.60;;;5.33;;
15712;SDS011;7957;51.608;6.916;2022-08-25T06:40:46;9.57;;;4.93;;
15712;SDS011;7957;51.608;6.916;2022-08-25T06:43:15;11.20;;;5.07;;
15712;SDS011;7957;51.608;6.916;2022-08-25T06:45:42;9.83;;;5.07;;
15712;SDS011;7957;51.608;6.916;2022-08-25T06:48:09;8.47;;;5.03;;
15712;SDS011;7957;51.608;6.916;2022-08-25T06:50:36;6.70;;;5.10;;
15712;SDS011;7957;51.608;6.916;2022-08-25T06:53:05;8.37;;;4.87;;
15712;SDS011;7957;51.608;6.916;2022-08-25T06:55:32;8.80;;;4.60;;
15712;SDS011;7957;51.608;6.916;2022-08-25T06:58:00;7.80;;;4.73;;
15712;SDS011;7957;51.608;6.916;2022-08-25T07:00:28;10.20;;;4.63;;
15712;SDS011;7957;51.608;6.916;2022-08-25T07:02:56;9.73;;;4.37;;
15712;SDS011;7957;51.608;6.916;2022-08-25T07:05:25;5.87;;;4.30;;
15712;SDS011;7957;51.608;6.916;2022-08-25T07:07:52;7.63;;;4.30;;
15712;SDS011;7957;51.608;6.916;2022-08-25T07:10:19;10.07;;;4.40;;
15712;SDS011;7957;51.608;6.916;2022-08-25T07:12:46;6.20;;;4.17;;
15712;SDS011;7957;51.608;6.916;2022-08-25T07:15:12;5.97;;;4.20;;
15712;SDS011;7957;51.608;6.916;2022-08-25T07:17:41;6.37;;;4.27;;
15712;SDS011;7957;51.608;6.916;2022-08-25T07:20:08;5.80;;;4.07;;
15712;SDS011;7957;51.608;6.916;2022-08-25T07:22:35;9.93;;;3.90;;
15712;SDS011;7957;51.608;6.916;2022-08-25T07:25:02;5.13;;;3.70;;
15712;SDS011;7957;51.608;6.916;2022-08-25T07:27:29;5.30;;;3.83;;
15712;SDS011;7957;51.608;6.916;2022-08-25T07:29:56;5.57;;;3.90;;
15712;SDS011;7957;51.608;6.916;2022-08-25T07:32:23;7.10;;;4.30;;
15712;SDS011;7957;51.608;6.916;2022-08-25T07:34:52;5.77;;;4.10;;
15712;SDS011;7957;51.608;6.916;2022-08-25T07:37:37;5.97;;;4.13;;
15712;SDS011;7957;51.608;6.916;2022-08-25T07:40:05;6.90;;;4.00;;
15712;SDS011;7957;51.608;6.916;2022-08-25T07:42:32;9.50;;;4.80;;
15712;SDS011;7957;51.608;6.916;2022-08-25T07:45:00;6.47;;;4.23;;
15712;SDS011;7957;51.608;6.916;2022-08-25T07:47:27;16.10;;;5.50;;
15712;SDS011;7957;51.608;6.916;2022-08-25T07:49:57;28.97;;;8.47;;
15712;SDS011;7957;51.608;6.916;2022-08-25T07:52:24;19.90;;;6.43;;
15712;SDS011;7957;51.608;6.916;2022-08-25T07:54:50;12.87;;;5.37;;
15712;SDS011;7957;51.608;6.916;2022-08-25T07:57:19;15.87;;;6.97;;
15712;SDS011;7957;51.608;6.916;2022-08-25T07:59:48;16.70;;;6.13;;
15712;SDS011;7957;51.608;6.916;2022-08-25T08:02:15;12.20;;;5.70;;
15712;SDS011;7957;51.608;6.916;2022-08-25T08:04:42;12.80;;;5.53;;
15712;SDS011;7957;51.608;6.916;2022-08-25T08:07:10;14.67;;;5.73;;
15712;SDS011;7957;51.608;6.916;2022-08-25T08:09:37;14.47;;;6.70;;
15712;SDS011;7957;51.608;6.916;2022-08-25T08:12:04;19.97;;;6.57;;
15712;SDS011;7957;51.608;6.916;2022-08-25T08:14:32;21.20;;;6.50;;
15712;SDS011;7957;51.608;6.916;2022-08-25T08:17:03;15.17;;;6.03;;
15712;SDS011;7957;51.608;6.916;2022-08-25T08:19:30;15.20;;;6.00;;
15712;SDS011;7957;51.608;6.916;2022-08-25T08:21:57;12.37;;;5.73;;
15712;SDS011;7957;51.608;6.916;2022-08-25T08:24:26;11.53;;;5.37;;
15712;SDS011;7957;51.608;6.916;2022-08-25T08:26:54;11.10;;;5.30;;
15712;SDS011;7957;51.608;6.916;2022-08-25T08:29:21;18.30;;;5.93;;
15712;SDS011;7957;51.608;6.916;2022-08-25T08:31:48;23.30;;;7.03;;
15712;SDS011;7957;51.608;6.916;2022-08-25T08:34:15;21.77;;;6.57;;
15712;SDS011;7957;51.608;6.916;2022-08-25T08:36:42;15.87;;;6.20;;
15712;SDS011;7957;51.608;6.916;2022-08-25T08:39:09;13.80;;;6.23;;
15712;SDS011;7957;51.608;6.916;2022-08-25T08:41:42;14.67;;;6.00;;
15712;SDS011;7957;51.608;6.916;2022-08-25T08:44:40;12.27;;;5.47;;
15712;SDS011;7957;51.608;6.916;2022-08-25T08:47:25;9.13;;;5.47;;
15712;SDS011;7957;51.608;6.916;2022-08-25T08:49:59;11.47;;;5.47;;
15712;SDS011;7957;51.608;6.916;2022-08-25T08:52:32;13.20;;;5.17;;
15712;SDS011;7957;51.608;6.916;2022-08-25T08:55:07;7.90;;;5.00;;
15712;SDS011;7957;51.608;6.916;2022-08-25T08:57:42;9.63;;;5.20;;
15712;SDS011;7957;51.608;6.916;2022-08-25T09:00:13;7.60;;;4.80;;
15712;SDS011;7957;51.608;6.916;2022-08-25T09:02:44;9.03;;;4.87;;
15712;SDS011;7957;51.608;6.916;2022-08-25T09:05:16;9.17;;;5.00;;
15712;SDS011;7957;51.608;6.916;2022-08-25T09:07:46;6.73;;;5.00;;
15712;SDS011;7957;51.608;6.916;2022-08-25T09:10:16;7.97;;;4.97;;
15712;SDS011;7957;51.608;6.916;2022-08-25T09:12:47;7.10;;;4.90;;
15712;SDS011;7957;51.608;6.916;2022-08-25T09:15:24;9.97;;;5.00;;
15712;SDS011;7957;51.608;6.916;2022-08-25T09:18:17;5.73;;;4.53;;
15712;SDS011;7957;51.608;6.916;2022-08-25T09:20:54;6.73;;;4.93;;
15712;SDS011;7957;51.608;6.916;2022-08-25T09:23:32;9.13;;;4.73;;
15712;SDS011;7957;51.608;6.916;2022-08-25T09:26:11;4.90;;;4.40;;
15712;SDS011;7957;51.608;6.916;2022-08-25T09:28:49;6.10;;;5.10;;
15712;SDS011;7957;51.608;6.916;2022-08-25T09:31:20;4.80;;;4.40;;
15712;SDS011;7957;51.608;6.916;2022-08-25T09:33:48;10.13;;;4.73;;
15712;SDS011;7957;51.608;6.916;2022-08-25T09:36:21;7.13;;;4.77;;
15712;SDS011;7957;51.608;6.916;2022-08-25T09:38:48;5.40;;;4.70;;
15712;SDS011;7957;51.608;6.916;2022-08-25T09:41:15;6.00;;;5.23;;
15712;SDS011;7957;51.608;6.916;2022-08-25T09:44:01;6.30;;;4.47;;
15712;SDS011;7957;51.608;6.916;2022-08-25T09:46:28;6.03;;;4.73;;
15712;SDS011;7957;51.608;6.916;2022-08-25T09:48:56;8.67;;;4.90;;
15712;SDS011;7957;51.608;6.916;2022-08-25T09:51:36;6.60;;;4.80;;
15712;SDS011;7957;51.608;6.916;2022-08-25T09:54:04;7.93;;;4.80;;
15712;SDS011;7957;51.608;6.916;2022-08-25T09:56:47;4.87;;;4.03;;
15712;SDS011;7957;51.608;6.916;2022-08-25T09:59:19;5.80;;;4.47;;
15712;SDS011;7957;51.608;6.916;2022-08-25T10:01:47;5.20;;;4.60;;
15712;SDS011;7957;51.608;6.916;2022-08-25T10:04:15;4.70;;;4.07;;
15712;SDS011;7957;51.608;6.916;2022-08-25T10:06:51;5.20;;;4.23;;
15712;SDS011;7957;51.608;6.916;2022-08-25T10:09:22;4.70;;;4.30;;
15712;SDS011;7957;51.608;6.916;2022-08-25T10:11:54;8.30;;;4.60;;
15712;SDS011;7957;51.608;6.916;2022-08-25T10:14:28;6.40;;;4.53;;
15712;SDS011;7957;51.608;6.916;2022-08-25T10:17:10;5.23;;;4.13;;
15712;SDS011;7957;51.608;6.916;2022-08-25T10:19:40;7.93;;;4.30;;
15712;SDS011;7957;51.608;6.916;2022-08-25T10:22:09;5.77;;;4.50;;
15712;SDS011;7957;51.608;6.916;2022-08-25T10:24:37;4.87;;;4.00;;
15712;SDS011;7957;51.608;6.916;2022-08-25T10:27:08;4.87;;;4.37;;
15712;SDS011;7957;51.608;6.916;2022-08-25T10:32:35;7.53;;;4.30;;
15712;SDS011;7957;51.608;6.916;2022-08-25T10:35:19;5.67;;;4.60;;
15712;SDS011;7957;51.608;6.916;2022-08-25T10:37:52;6.97;;;4.30;;
15712;SDS011;7957;51.608;6.916;2022-08-25T10:40:30;4.33;;;3.73;;
15712;SDS011;7957;51.608;6.916;2022-08-25T10:43:06;4.87;;;4.00;;
15712;SDS011;7957;51.608;6.916;2022-08-25T10:45:44;4.20;;;3.70;;
15712;SDS011;7957;51.608;6.916;2022-08-25T10:48:17;5.28;;;4.07;;
15712;SDS011;7957;51.608;6.916;2022-08-25T10:51:14;5.20;;;4.30;;
15712;SDS011;7957;51.608;6.916;2022-08-25T10:53:54;6.40;;;3.77;;
15712;SDS011;7957;51.608;6.916;2022-08-25T10:56:26;6.45;;;3.85;;
15712;SDS011;7957;51.608;6.916;2022-08-25T11:02:00;6.00;;;4.15;;
15712;SDS011;7957;51.608;6.916;2022-08-25T11:04:55;7.30;;;4.38;;
15712;SDS011;7957;51.608;6.916;2022-08-25T11:07:27;4.45;;;4.03;;
15712;SDS011;7957;51.608;6.916;2022-08-25T11:09:59;4.47;;;4.05;;
15712;SDS011;7957;51.608;6.916;2022-08-25T11:12:34;4.30;;;3.90;;
15712;SDS011;7957;51.608;6.916;2022-08-25T11:15:20;4.90;;;3.80;;
15712;SDS011;7957;51.608;6.916;2022-08-25T11:17:52;4.72;;;4.05;;
15712;SDS011;7957;51.608;6.916;2022-08-25T11:20:23;4.47;;;4.00;;
15712;SDS011;7957;51.608;6.916;2022-08-25T11:23:00;5.22;;;3.70;;
15712;SDS011;7957;51.608;6.916;2022-08-25T11:25:36;4.18;;;3.60;;
15712;SDS011;7957;51.608;6.916;2022-08-25T11:28:08;4.32;;;3.92;;
15712;SDS011;7957;51.608;6.916;2022-08-25T11:30:38;4.78;;;3.70;;
15712;SDS011;7957;51.608;6.916;2022-08-25T11:33:07;4.63;;;3.60;;
15712;SDS011;7957;51.608;6.916;2022-08-25T11:35:39;5.05;;;3.55;;
15712;SDS011;7957;51.608;6.916;2022-08-25T11:38:13;4.10;;;3.70;;
15712;SDS011;7957;51.608;6.916;2022-08-25T11:40:53;3.92;;;3.60;;
15712;SDS011;7957;51.608;6.916;2022-08-25T11:43:45;6.38;;;3.42;;
15712;SDS011;7957;51.608;6.916;2022-08-25T11:46:29;3.83;;;3.53;;
15712;SDS011;7957;51.608;6.916;2022-08-25T11:49:12;3.90;;;3.55;;
15712;SDS011;7957;51.608;6.916;2022-08-25T11:51:55;3.90;;;3.50;;
15712;SDS011;7957;51.608;6.916;2022-08-25T11:54:23;5.93;;;3.42;;
15712;SDS011;7957;51.608;6.916;2022-08-25T11:56:56;4.05;;;3.40;;
15712;SDS011;7957;51.608;6.916;2022-08-25T12:02:34;4.15;;;3.30;;
15712;SDS011;7957;51.608;6.916;2022-08-25T12:05:06;4.95;;;3.42;;
15712;SDS011;7957;51.608;6.916;2022-08-25T12:10:53;4.60;;;3.35;;
15712;SDS011;7957;51.608;6.916;2022-08-25T12:13:24;4.18;;;3.30;;
15712;SDS011;7957;51.608;6.916;2022-08-25T12:16:06;4.82;;;3.47;;
15712;SDS011;7957;51.608;6.916;2022-08-25T12:25:18;3.88;;;3.50;;
15712;SDS011;7957;51.608;6.916;2022-08-25T12:28:02;5.50;;;3.53;;
15712;SDS011;7957;51.608;6.916;2022-08-25T12:30:37;4.57;;;3.33;;
15712;SDS011;7957;51.608;6.916;2022-08-25T12:33:12;4.35;;;3.10;;
15712;SDS011;7957;51.608;6.916;2022-08-25T12:35:52;4.68;;;3.70;;
15712;SDS011;7957;51.608;6.916;2022-08-25T12:38:31;4.00;;;3.53;;
15712;SDS011;7957;51.608;6.916;2022-08-25T12:41:06;3.97;;;3.40;;
15712;SDS011;7957;51.608;6.916;2022-08-25T12:43:35;3.60;;;3.30;;
15712;SDS011;7957;51.608;6.916;2022-08-25T12:49:00;4.65;;;3.60;;
15712;SDS011;7957;51.608;6.916;2022-08-25T12:51:50;3.78;;;3.40;;
15712;SDS011;7957;51.608;6.916;2022-08-25T12:54:23;4.32;;;3.80;;
15712;SDS011;7957;51.608;6.916;2022-08-25T12:56:58;4.05;;;3.63;;
15712;SDS011;7957;51.608;6.916;2022-08-25T12:59:31;3.78;;;3.47;;
15712;SDS011;7957;51.608;6.916;2022-08-25T13:02:24;3.50;;;3.20;;
15712;SDS011;7957;51.608;6.916;2022-08-25T13:05:12;3.83;;;3.53;;
15712;SDS011;7957;51.608;6.916;2022-08-25T13:08:09;4.25;;;3.60;;
15712;SDS011;7957;51.608;6.916;2022-08-25T13:11:01;4.43;;;4.03;;
15712;SDS011;7957;51.608;6.916;2022-08-25T13:13:36;3.80;;;3.50;;
15712;SDS011;7957;51.608;6.916;2022-08-25T13:16:14;3.65;;;3.35;;
15712;SDS011;7957;51.608;6.916;2022-08-25T13:18:42;4.05;;;3.75;;
15712;SDS011;7957;51.608;6.916;2022-08-25T13:21:12;6.88;;;4.00;;
15712;SDS011;7957;51.608;6.916;2022-08-25T13:23:42;4.45;;;3.83;;
15712;SDS011;7957;51.608;6.916;2022-08-25T13:26:15;5.00;;;3.83;;
15712;SDS011;7957;51.608;6.916;2022-08-25T13:28:49;5.20;;;4.35;;
15712;SDS011;7957;51.608;6.916;2022-08-25T13:31:20;4.13;;;3.75;;
15712;SDS011;7957;51.608;6.916;2022-08-25T13:33:52;4.32;;;4.03;;
15712;SDS011;7957;51.608;6.916;2022-08-25T13:36:22;4.93;;;4.53;;
15712;SDS011;7957;51.608;6.916;2022-08-25T13:39:12;5.45;;;4.30;;
15712;SDS011;7957;51.608;6.916;2022-08-25T13:41:44;4.90;;;4.40;;
15712;SDS011;7957;51.608;6.916;2022-08-25T13:44:13;20.02;;;6.45;;
15712;SDS011;7957;51.608;6.916;2022-08-25T13:46:41;20.35;;;5.95;;
15712;SDS011;7957;51.608;6.916;2022-08-25T13:49:09;8.07;;;5.03;;
15712;SDS011;7957;51.608;6.916;2022-08-25T13:51:37;5.75;;;4.50;;
15712;SDS011;7957;51.608;6.916;2022-08-25T13:54:22;8.52;;;4.75;;
15712;SDS011;7957;51.608;6.916;2022-08-25T13:56:52;7.30;;;4.75;;
15712;SDS011;7957;51.608;6.916;2022-08-25T13:59:20;9.13;;;4.65;;
15712;SDS011;7957;51.608;6.916;2022-08-25T14:01:51;9.35;;;4.63;;
15712;SDS011;7957;51.608;6.916;2022-08-25T14:04:21;5.93;;;4.40;;
15712;SDS011;7957;51.608;6.916;2022-08-25T14:09:51;4.95;;;4.53;;
15712;SDS011;7957;51.608;6.916;2022-08-25T14:12:28;6.88;;;4.85;;
15712;SDS011;7957;51.608;6.916;2022-08-25T14:15:06;4.47;;;4.15;;
15712;SDS011;7957;51.608;6.916;2022-08-25T14:17:38;4.80;;;4.28;;
15712;SDS011;7957;51.608;6.916;2022-08-25T14:20:17;5.65;;;4.43;;
15712;SDS011;7957;51.608;6.916;2022-08-25T14:22:49;5.05;;;4.50;;
15712;SDS011;7957;51.608;6.916;2022-08-25T14:25:20;4.88;;;4.47;;
15712;SDS011;7957;51.608;6.916;2022-08-25T14:27:54;5.35;;;4.45;;
15712;SDS011;7957;51.608;6.916;2022-08-25T14:30:23;4.80;;;4.40;;
15712;SDS011;7957;51.608;6.916;2022-08-25T14:32:50;5.30;;;4.80;;
15712;SDS011;7957;51.608;6.916;2022-08-25T14:35:17;5.00;;;4.60;;
15712;SDS011;7957;51.608;6.916;2022-08-25T14:37:44;5.28;;;4.45;;
15712;SDS011;7957;51.608;6.916;2022-08-25T14:40:12;5.78;;;4.50;;
15712;SDS011;7957;51.608;6.916;2022-08-25T14:42:43;5.53;;;4.72;;
15712;SDS011;7957;51.608;6.916;2022-08-25T14:45:12;6.07;;;4.82;;
15712;SDS011;7957;51.608;6.916;2022-08-25T14:47:40;5.00;;;4.60;;
15712;SDS011;7957;51.608;6.916;2022-08-25T14:50:07;4.45;;;4.15;;
15712;SDS011;7957;51.608;6.916;2022-08-25T14:52:35;4.63;;;4.22;;
15712;SDS011;7957;51.608;6.916;2022-08-25T14:55:03;5.35;;;4.50;;
15712;SDS011;7957;51.608;6.916;2022-08-25T14:57:30;4.97;;;4.57;;
15712;SDS011;7957;51.608;6.916;2022-08-25T14:59:57;6.20;;;4.90;;
15712;SDS011;7957;51.608;6.916;2022-08-25T15:02:26;8.68;;;4.78;;
15712;SDS011;7957;51.608;6.916;2022-08-25T15:04:56;5.00;;;4.60;;
15712;SDS011;7957;51.608;6.916;2022-08-25T15:07:26;8.15;;;5.13;;
15712;SDS011;7957;51.608;6.916;2022-08-25T15:10:11;4.93;;;4.60;;
15712;SDS011;7957;51.608;6.916;2022-08-25T15:12:38;5.13;;;4.72;;
15712;SDS011;7957;51.608;6.916;2022-08-25T15:15:05;6.13;;;4.70;;
15712;SDS011;7957;51.608;6.916;2022-08-25T15:17:35;6.85;;;4.72;;
15712;SDS011;7957;51.608;6.916;2022-08-25T15:20:04;17.55;;;5.53;;
15712;SDS011;7957;51.608;6.916;2022-08-25T15:22:32;13.20;;;6.10;;
15712;SDS011;7957;51.608;6.916;2022-08-25T15:24:59;7.38;;;5.05;;
15712;SDS011;7957;51.608;6.916;2022-08-25T15:27:26;6.45;;;4.90;;
15712;SDS011;7957;51.608;6.916;2022-08-25T15:29:52;9.68;;;5.15;;
15712;SDS011;7957;51.608;6.916;2022-08-25T15:32:19;5.95;;;4.88;;
15712;SDS011;7957;51.608;6.916;2022-08-25T15:34:48;7.80;;;5.53;;
15712;SDS011;7957;51.608;6.916;2022-08-25T15:37:16;6.13;;;5.20;;
15712;SDS011;7957;51.608;6.916;2022-08-25T15:39:43;5.75;;;5.18;;
15712;SDS011;7957;51.608;6.916;2022-08-25T15:42:11;7.55;;;4.95;;
15712;SDS011;7957;51.608;6.916;2022-08-25T15:44:40;6.78;;;4.63;;
15712;SDS011;7957;51.608;6.916;2022-08-25T15:47:08;6.70;;;4.85;;